Terminal Aerodrome Forecast
Issued by NWS

Home | Current Version | Previous Version | Text Only | Print | Product List | Glossary Off
Versions: 1 2 3 4 5 6 7 8 9 10 11 12 13 14 15 16

000
FTUS43 KBIS 291120
TAFMOT
TAF
KMOT 291120Z 2912/3012 26020G28KT P6SM SCT070 BKN100
     FM291500 28025G35KT P6SM SCT060
     FM300100 28010KT P6SM SKC
     FM300700 24008KT P6SM SKC=

USA.gov is the U.S. government's official web portal to all federal, state and local government web resources and services.